createdAt,value
2023-02-02T00:01:11.899Z,102691.00
2023-02-02T00:06:18.693Z,102721.03
2023-02-02T00:11:24.029Z,102739.06
2023-02-02T00:16:29.722Z,102715.13
2023-02-02T00:21:35.326Z,102753.72
2023-02-02T00:26:41.952Z,102716.88
2023-02-02T00:31:48.491Z,102713.44
2023-02-02T00:36:54.150Z,102741.78
2023-02-02T00:42:01.135Z,102738.38
2023-02-02T00:47:07.462Z,102716.97
2023-02-02T00:52:12.708Z,102708.38
2023-02-02T00:57:18.873Z,102721.22
2023-02-02T01:02:25.827Z,102728.94
2023-02-02T01:07:30.684Z,102719.44
2023-02-02T01:12:35.956Z,102727.13
2023-02-02T01:17:43.671Z,102727.94
2023-02-02T01:22:50.578Z,102764.88
2023-02-02T01:27:56.271Z,102712.28
2023-02-02T01:33:01.588Z,102718.19
2023-02-02T01:38:10.029Z,102708.69
2023-02-02T01:43:45.654Z,102749.09
2023-02-02T01:49:11.807Z,102730.09
2023-02-02T01:54:23.919Z,102691.22
2023-02-02T01:59:32.571Z,102679.88
2023-02-02T02:04:38.648Z,102646.97
2023-02-02T02:09:45.756Z,102671.84
2023-02-02T02:15:11.576Z,102675.13
2023-02-02T02:20:56.491Z,102640.38
2023-02-02T02:26:35.889Z,102617.75
2023-02-02T02:32:04.525Z,102646.06
2023-02-02T02:37:16.231Z,102613.03
2023-02-02T02:42:29.240Z,102624.94
2023-02-02T02:47:38.603Z,102591.88
2023-02-02T02:52:43.979Z,102599.44
2023-02-02T02:57:59.582Z,102610.44
2023-02-02T03:03:21.972Z,102645.56
2023-02-02T03:08:52.195Z,102586.41
2023-02-02T03:13:58.913Z,102566.19
2023-02-02T03:19:05.774Z,102573.66
2023-02-02T03:24:10.836Z,102572.41
2023-02-02T03:29:16.288Z,102538.44
2023-02-02T03:34:21.201Z,102541.69
2023-02-02T03:39:26.272Z,102484.22
2023-02-02T03:44:31.081Z,102554.16
2023-02-02T03:49:36.831Z,102447.16
2023-02-02T03:54:43.049Z,102432.16
2023-02-02T03:59:47.888Z,102473.31
2023-02-02T04:04:52.839Z,102454.88
2023-02-02T04:09:58.697Z,102401.78
2023-02-02T04:15:05.723Z,102403.97
2023-02-02T04:20:11.382Z,102438.38
2023-02-02T04:25:17.164Z,102376.44
2023-02-02T04:30:22.067Z,102371.91
2023-02-02T04:35:27.072Z,102378.09
2023-02-02T04:40:31.923Z,102349.47
2023-02-02T04:45:37.307Z,102414.34
2023-02-02T04:50:42.807Z,102343.91
2023-02-02T04:55:48.836Z,102323.00
2023-02-02T05:00:54.167Z,102316.09
2023-02-02T05:06:06.322Z,102303.91
2023-02-02T05:11:17.552Z,102295.28
2023-02-02T05:16:28.523Z,102284.88
2023-02-02T05:21:34.662Z,102279.72
2023-02-02T05:26:39.710Z,102290.06
2023-02-02T05:31:47.126Z,102249.19
2023-02-02T05:36:52.276Z,102242.13
2023-02-02T05:41:57.635Z,102235.00
2023-02-02T05:47:04.052Z,102222.00
2023-02-02T05:52:15.193Z,102209.69
2023-02-02T05:57:19.957Z,102234.63
2023-02-02T06:02:26.422Z,102200.53
2023-02-02T06:07:34.021Z,102224.59
2023-02-02T06:12:38.270Z,102200.94
2023-02-02T06:17:43.340Z,102191.44
2023-02-02T06:22:50.140Z,102202.03
2023-02-02T06:28:00.668Z,102167.19
2023-02-02T06:33:07.418Z,102179.31
2023-02-02T06:38:13.951Z,102156.53
2023-02-02T06:43:19.258Z,102163.38
2023-02-02T06:48:30.463Z,102135.59
2023-02-02T06:53:37.012Z,102136.75
2023-02-02T06:58:42.849Z,102141.09
2023-02-02T07:03:53.753Z,102117.91
2023-02-02T07:09:02.297Z,102128.38
2023-02-02T07:14:10.723Z,102131.03
2023-02-02T07:19:17.743Z,102121.41
2023-02-02T07:24:23.342Z,102142.19
2023-02-02T07:29:29.436Z,102119.59
2023-02-02T07:34:34.447Z,102096.16
2023-02-02T07:39:44.737Z,102099.78
2023-02-02T07:44:49.716Z,102091.06
2023-02-02T07:49:57.231Z,102079.91
2023-02-02T07:55:14.055Z,102075.78
2023-02-02T08:00:20.792Z,102087.28
2023-02-02T08:05:27.275Z,102081.28
2023-02-02T08:10:32.755Z,102114.34
2023-02-02T08:15:39.187Z,102067.53
2023-02-02T08:20:45.567Z,102090.34
2023-02-02T08:25:52.297Z,102059.31
2023-02-02T08:30:57.138Z,102049.94
2023-02-02T08:36:04.873Z,102079.72
2023-02-02T08:41:13.209Z,102042.72
2023-02-02T08:46:21.656Z,102083.03
2023-02-02T08:51:27.079Z,102041.66
2023-02-02T08:56:33.453Z,102048.91
2023-02-02T09:01:41.205Z,102050.06
2023-02-02T09:06:48.311Z,102051.22
2023-02-02T09:11:56.337Z,102045.44
2023-02-02T09:17:01.361Z,102048.38
2023-02-02T09:22:07.689Z,102046.06
2023-02-02T09:27:13.062Z,102038.69
2023-02-02T09:32:17.929Z,102052.97
2023-02-02T09:37:25.170Z,102061.59
2023-02-02T09:43:04.363Z,102036.75
2023-02-02T09:48:43.246Z,102033.66
2023-02-02T09:54:02.042Z,102047.81
2023-02-02T09:59:20.349Z,102049.63
2023-02-02T10:04:35.544Z,102038.47
2023-02-02T10:09:59.071Z,102031.78
2023-02-02T10:15:31.721Z,102035.44
2023-02-02T10:20:39.771Z,102035.69
2023-02-02T10:26:05.523Z,102050.66
2023-02-02T10:31:21.641Z,102053.44
2023-02-02T10:36:52.705Z,102050.19
2023-02-02T10:42:16.559Z,102059.88
2023-02-02T10:47:31.377Z,102050.56
2023-02-02T10:52:38.394Z,102049.00
2023-02-02T10:58:00.397Z,102112.16
2023-02-02T11:03:06.295Z,102054.28
2023-02-02T11:08:20.839Z,102056.94
2023-02-02T11:13:43.668Z,102053.53
2023-02-02T11:18:49.081Z,102044.16
2023-02-02T11:23:59.535Z,102049.44
2023-02-02T11:29:05.082Z,102042.69
2023-02-02T11:34:26.364Z,102080.84
2023-02-02T11:39:32.788Z,102051.53
2023-02-02T11:44:41.914Z,102040.38
2023-02-02T11:49:49.978Z,102038.72
2023-02-02T11:55:02.841Z,102037.19
2023-02-02T12:00:20.228Z,102035.72
2023-02-02T12:05:38.045Z,102040.38
2023-02-02T12:10:59.973Z,102033.72
2023-02-02T12:16:29.764Z,102042.78
2023-02-02T12:22:01.877Z,102043.38
2023-02-02T12:27:35.160Z,102043.88
2023-02-02T12:32:54.035Z,102031.38
2023-02-02T12:38:34.540Z,102030.88
2023-02-02T12:43:41.604Z,102035.41
2023-02-02T12:49:34.605Z,102034.84
2023-02-02T12:54:55.680Z,102044.56
2023-02-02T13:00:26.917Z,102048.13
2023-02-02T13:05:56.524Z,102056.84
2023-02-02T13:11:35.260Z,102051.78
2023-02-02T13:16:51.341Z,102039.84
2023-02-02T13:22:02.123Z,102041.56
2023-02-02T13:27:14.759Z,102048.53
2023-02-02T13:32:41.490Z,102048.66
2023-02-02T13:38:28.835Z,102042.78
2023-02-02T13:43:35.147Z,102041.13
2023-02-02T13:49:18.695Z,102033.44
2023-02-02T13:55:01.364Z,102022.25
2023-02-02T14:00:28.171Z,102030.94
2023-02-02T14:05:43.813Z,102016.41
2023-02-02T14:10:59.376Z,102030.16
2023-02-02T14:16:11.061Z,102025.81
2023-02-02T14:21:36.144Z,102018.97
2023-02-02T14:26:46.522Z,102015.50
2023-02-02T14:32:01.716Z,102026.63
2023-02-02T14:37:29.672Z,102070.56
2023-02-02T14:43:23.815Z,102007.81
2023-02-02T14:48:33.735Z,102010.47
2023-02-02T14:59:21.521Z,101989.22
2023-02-02T15:04:32.928Z,102008.16
2023-02-02T15:09:43.589Z,101987.63
2023-02-02T15:15:00.265Z,101996.16
2023-02-02T15:20:27.765Z,101982.44
2023-02-02T15:25:59.513Z,102005.69
2023-02-02T15:31:29.548Z,101979.91
2023-02-02T15:36:41.209Z,101967.13
2023-02-02T15:41:49.645Z,101950.88
2023-02-02T15:46:58.416Z,101939.78
2023-02-02T15:52:26.671Z,101941.69
2023-02-02T15:57:38.918Z,101926.44
2023-02-02T16:02:51.680Z,101929.19
2023-02-02T16:08:05.588Z,101931.94
2023-02-02T16:13:25.823Z,101915.72
2023-02-02T16:18:32.004Z,101907.94
2023-02-02T16:23:44.272Z,101913.13
2023-02-02T16:28:48.496Z,101907.13
2023-02-02T16:33:53.348Z,101900.22
2023-02-02T16:39:02.107Z,101900.22
2023-02-02T16:44:45.086Z,101897.66
2023-02-02T16:49:49.883Z,101893.44
2023-02-02T16:54:57.706Z,101889.25
2023-02-02T17:00:07.702Z,101881.69
2023-02-02T17:05:26.562Z,101874.94
2023-02-02T17:10:41.039Z,101877.59
2023-02-02T17:15:54.284Z,101908.59
2023-02-02T17:21:08.445Z,101854.66
2023-02-02T17:26:15.386Z,101835.06
2023-02-02T17:31:20.202Z,101850.50
2023-02-02T17:36:25.028Z,101829.06
2023-02-02T17:41:30.760Z,101826.50
2023-02-02T17:46:39.784Z,101821.44
2023-02-02T17:51:45.023Z,101827.50
2023-02-02T17:56:49.736Z,101825.03
2023-02-02T18:02:04.255Z,101823.31
2023-02-02T18:07:10.124Z,101837.94
2023-02-02T18:12:14.741Z,101815.75
2023-02-02T18:17:19.366Z,101811.56
2023-02-02T18:22:24.893Z,101824.56
2023-02-02T18:27:31.366Z,101812.66
2023-02-02T18:32:43.707Z,101805.88
2023-02-02T18:37:48.327Z,101805.06
2023-02-02T18:42:52.481Z,101799.94
2023-02-02T18:47:57.086Z,101785.41
2023-02-02T18:53:01.655Z,101791.38
2023-02-02T18:58:09.056Z,101781.97
2023-02-02T19:03:14.343Z,101766.53
2023-02-02T19:08:19.074Z,101751.13
2023-02-02T19:13:23.869Z,101768.19
2023-02-02T19:18:28.661Z,101744.25
2023-02-02T19:23:34.313Z,101748.63
2023-02-02T19:28:41.593Z,101736.72
2023-02-02T19:33:52.260Z,101733.41
2023-02-02T19:39:06.712Z,101726.63
2023-02-02T19:44:22.970Z,101718.13
2023-02-02T19:49:34.389Z,101710.44
2023-02-02T19:54:45.815Z,101709.53
2023-02-02T19:59:53.730Z,101748.09
2023-02-02T20:05:24.109Z,101717.22
2023-02-02T20:10:37.684Z,101711.34
2023-02-02T20:15:42.389Z,101767.84
2023-02-02T20:20:51.641Z,101821.75
2023-02-02T20:25:56.321Z,101754.22
2023-02-02T20:31:01.167Z,101744.06
2023-02-02T20:36:38.728Z,101762.91
2023-02-02T20:41:45.873Z,101753.56
2023-02-02T20:46:49.997Z,101748.44
2023-02-02T20:51:57.818Z,101750.16
2023-02-02T20:57:06.603Z,101741.63
2023-02-02T21:02:20.606Z,101741.59
2023-02-02T21:07:26.688Z,101743.31
2023-02-02T21:12:31.336Z,101747.59
2023-02-02T21:17:36.492Z,101741.50
2023-02-02T21:22:41.081Z,101748.28
2023-02-02T21:27:45.835Z,101745.66
2023-02-02T21:32:50.447Z,101758.47
2023-02-02T21:38:00.109Z,101736.19
2023-02-02T21:43:19.067Z,101767.00
2023-02-02T21:48:36.366Z,101715.59
2023-02-02T21:53:41.509Z,101710.44
2023-02-02T21:58:47.966Z,101707.00
2023-02-02T22:03:53.224Z,101704.41
2023-02-02T22:09:14.163Z,101703.53
2023-02-02T22:14:38.605Z,101718.88
2023-02-02T22:19:46.284Z,101760.78
2023-02-02T22:25:22.114Z,101716.28
2023-02-02T22:30:29.593Z,101717.13
2023-02-02T22:35:36.101Z,101718.84
2023-02-02T22:40:41.108Z,101706.00
2023-02-02T22:45:46.965Z,101710.25
2023-02-02T22:50:53.629Z,101776.16
2023-02-02T22:55:58.754Z,101757.34
2023-02-02T23:01:04.852Z,101722.25
2023-02-02T23:06:09.955Z,101729.09
2023-02-02T23:11:16.049Z,101783.03
2023-02-02T23:16:21.246Z,101725.66
2023-02-02T23:21:26.765Z,101735.06
2023-02-02T23:26:31.992Z,101735.88
2023-02-02T23:31:37.118Z,101736.75
2023-02-02T23:36:42.255Z,101818.09
2023-02-02T23:41:46.453Z,101745.25
2023-02-02T23:46:52.937Z,101788.03
2023-02-02T23:51:58.171Z,101751.19
2023-02-02T23:57:03.706Z,101800.84
